Time;durP1;ratioP1;P1;durP2;ratioP2;P2;SDS_P1;SDS_P2;PMS_P1;PMS_P2;Temp;Humidity;BMP_temperature;BMP_pressure;BME280_temperature;BME280_humidity;BME280_pressure;Samples;Min_cycle;Max_cycle;Signal;HPM_P1;HPM_P2
2023/06/28 00:01:45;;;;;;;0.00;0.00;;;;;;;18.37;86.84;100711.78;5027035;28;20627;-74
2023/06/28 00:04:11;;;;;;;0.00;0.00;;;;;;;18.28;87.44;100704.25;5014362;28;20026;-74
2023/06/28 00:06:36;;;;;;;0.00;0.00;;;;;;;18.37;86.79;100714.56;4999652;28;20472;-74
2023/06/28 00:09:02;;;;;;;0.00;0.00;;;;;;;18.35;86.94;100714.06;5017568;28;20036;-73
2023/06/28 00:11:27;;;;;;;0.00;0.00;;;;;;;18.27;86.90;100699.00;5018503;28;20025;-73
2023/06/28 00:13:53;;;;;;;0.00;0.00;;;;;;;18.33;86.94;100710.78;5023612;28;20599;-73
2023/06/28 00:16:19;;;;;;;0.00;0.00;;;;;;;18.25;86.73;100699.34;5018964;28;20017;-73
2023/06/28 00:18:45;;;;;;;0.00;0.00;;;;;;;18.34;86.79;100710.47;5030618;28;20386;-74
2023/06/28 00:21:13;;;;;;;0.00;0.00;;;;;;;18.32;86.78;100704.41;5039291;28;20032;-73
2023/06/28 00:23:39;;;;;;;0.00;0.00;;;;;;;18.31;87.41;100698.06;5012969;28;20026;-72
2023/06/28 00:26:04;;;;;;;0.00;0.00;;;;;;;18.25;87.12;100704.03;5032302;28;20091;-73
2023/06/28 00:28:30;;;;;;;0.00;0.00;;;;;;;18.28;87.05;100703.41;5013206;28;20120;-73
2023/06/28 00:30:55;;;;;;;0.00;0.00;;;;;;;18.28;86.85;100704.25;5005621;28;20034;-73
2023/06/28 00:33:21;;;;;;;0.00;0.00;;;;;;;18.23;87.40;100695.22;5015899;28;20025;-74
2023/06/28 00:35:49;;;;;;;0.00;0.00;;;;;;;18.29;87.05;100699.50;5033465;28;20037;-72
2023/06/28 00:38:15;;;;;;;0.00;0.00;;;;;;;18.21;87.38;100686.41;5023430;28;20029;-72
2023/06/28 00:40:40;;;;;;;0.00;0.00;;;;;;;18.28;87.55;100695.94;4996440;28;20430;-74
2023/06/28 00:43:07;;;;;;;0.00;0.00;;;;;;;18.24;87.13;100686.63;5031152;28;20458;-73
2023/06/28 00:45:32;;;;;;;0.00;0.00;;;;;;;18.29;86.92;100689.25;5021388;28;20080;-75
2023/06/28 00:47:58;;;;;;;0.00;0.00;;;;;;;18.25;86.97;100677.19;5020375;28;20037;-73
2023/06/28 00:50:25;;;;;;;0.00;0.00;;;;;;;18.22;87.36;100682.50;5014520;28;20380;-73
2023/06/28 00:52:51;;;;;;;0.00;0.00;;;;;;;18.19;87.26;100683.13;5025811;28;20116;-73
2023/06/28 00:55:17;;;;;;;0.00;0.00;;;;;;;18.15;87.49;100688.50;5007166;28;20460;-72
2023/06/28 00:57:42;;;;;;;0.00;0.00;;;;;;;18.15;87.32;100688.50;5022258;28;20087;-74
2023/06/28 01:00:12;;;;;;;0.00;0.00;;;;;;;18.18;87.43;100693.41;5025210;28;20684;-74
2023/06/28 01:02:41;;;;;;;0.00;0.00;;;;;;;18.19;87.32;100689.47;5010945;28;20057;-74
2023/06/28 01:05:09;;;;;;;0.00;0.00;;;;;;;18.19;87.57;100683.13;4998611;28;20097;-74
2023/06/28 01:07:37;;;;;;;0.00;0.00;;;;;;;18.21;87.34;100678.94;5007133;28;20028;-73
2023/06/28 01:10:04;;;;;;;0.00;0.00;;;;;;;18.22;86.93;100677.78;4998659;28;20120;-74
2023/06/28 01:12:32;;;;;;;0.00;0.00;;;;;;;18.18;87.29;100670.41;5026495;28;20026;-74
2023/06/28 01:14:59;;;;;;;0.00;0.00;;;;;;;18.13;87.29;100674.13;5021682;28;20083;-74
2023/06/28 01:17:27;;;;;;;0.00;0.00;;;;;;;18.03;87.81;100674.34;5020703;28;20036;-72
2023/06/28 01:19:54;;;;;;;0.00;0.00;;;;;;;17.95;87.88;100660.13;5017708;28;20061;-72
2023/06/28 01:22:20;;;;;;;0.00;0.00;;;;;;;17.95;88.16;100668.41;5006422;28;20046;-72
2023/06/28 01:24:46;;;;;;;0.00;0.00;;;;;;;17.90;88.24;100659.41;5008847;28;20022;-73
2023/06/28 01:27:13;;;;;;;0.00;0.00;;;;;;;17.85;88.79;100665.03;5023372;28;20038;-74
2023/06/28 01:29:40;;;;;;;0.00;0.00;;;;;;;17.76;89.05;100660.22;5007146;28;20041;-72
2023/06/28 01:32:06;;;;;;;0.00;0.00;;;;;;;17.69;89.37;100661.78;5019845;28;20663;-73
2023/06/28 01:34:32;;;;;;;0.00;0.00;;;;;;;17.65;89.49;100652.44;5041547;28;20043;-74
2023/06/28 01:37:00;;;;;;;0.00;0.00;;;;;;;17.72;89.73;100669.44;5020755;28;20852;-72
2023/06/28 01:39:27;;;;;;;0.00;0.00;;;;;;;17.70;89.34;100664.22;5035892;28;20470;-73
2023/06/28 01:41:53;;;;;;;0.00;0.00;;;;;;;17.69;89.63;100659.00;4996302;28;20381;-73
2023/06/28 01:44:20;;;;;;;0.00;0.00;;;;;;;17.57;89.90;100657.56;5008305;28;20069;-72
2023/06/28 01:46:46;;;;;;;0.00;0.00;;;;;;;17.45;90.16;100665.56;5022553;28;20469;-73
2023/06/28 01:49:12;;;;;;;0.00;0.00;;;;;;;17.28;91.36;100664.19;5020328;28;20074;-74
2023/06/28 01:51:39;;;;;;;0.00;0.00;;;;;;;17.16;91.68;100658.38;5015919;28;20025;-73
2023/06/28 01:54:05;;;;;;;0.00;0.00;;;;;;;17.11;91.95;100658.44;5009769;28;20036;-74
2023/06/28 01:56:30;;;;;;;0.00;0.00;;;;;;;16.97;92.43;100643.78;4989207;28;20025;-73
2023/06/28 01:58:56;;;;;;;0.00;0.00;;;;;;;16.92;93.16;100647.47;5009920;28;20578;-73
2023/06/28 02:01:22;;;;;;;0.00;0.00;;;;;;;16.83;93.67;100641.78;5008475;28;20632;-74
2023/06/28 02:03:47;;;;;;;0.00;0.00;;;;;;;16.78;93.52;100647.41;5009705;28;20119;-74
2023/06/28 02:06:14;;;;;;;0.00;0.00;;;;;;;16.69;93.98;100640.91;5018679;28;20030;-73
2023/06/28 02:08:39;;;;;;;0.00;0.00;;;;;;;16.67;94.17;100629.38;4992441;28;20017;-73
2023/06/28 02:11:05;;;;;;;0.00;0.00;;;;;;;16.60;94.22;100628.94;5014431;28;21591;-73
2023/06/28 02:13:30;;;;;;;0.00;0.00;;;;;;;16.58;93.68;100637.53;5017849;28;20043;-74
2023/06/28 02:15:56;;;;;;;0.00;0.00;;;;;;;16.56;93.98;100635.06;5003488;28;20018;-74
2023/06/28 02:18:24;;;;;;;0.00;0.00;;;;;;;16.56;94.38;100629.53;5034929;28;20095;-73
2023/06/28 02:20:53;;;;;;;0.00;0.00;;;;;;;16.58;94.60;100630.06;5023470;28;20116;-73
2023/06/28 02:23:19;;;;;;;0.00;0.00;;;;;;;16.61;93.99;100636.91;5018192;28;20053;-73
2023/06/28 02:25:44;;;;;;;0.00;0.00;;;;;;;16.60;93.93;100629.75;5004210;28;20030;-73
2023/06/28 02:28:10;;;;;;;0.00;0.00;;;;;;;16.69;94.11;100629.88;5035273;28;20033;-74
2023/06/28 02:30:38;;;;;;;0.00;0.00;;;;;;;16.71;93.98;100624.91;5009117;28;20029;-74
2023/06/28 02:33:04;;;;;;;0.00;0.00;;;;;;;16.69;93.47;100625.19;5012712;28;20021;-74
2023/06/28 02:35:30;;;;;;;0.00;0.00;;;;;;;16.69;94.10;100616.06;5032439;28;20368;-74
2023/06/28 02:37:55;;;;;;;0.00;0.00;;;;;;;16.72;93.51;100626.53;5007303;28;20030;-75
2023/06/28 02:40:21;;;;;;;0.00;0.00;;;;;;;16.74;93.72;100618.75;5016003;28;20026;-75
2023/06/28 02:42:47;;;;;;;0.00;0.00;;;;;;;16.80;93.84;100622.25;4994196;28;20028;-74
2023/06/28 02:45:12;;;;;;;0.00;0.00;;;;;;;16.86;93.59;100621.03;4988911;28;21618;-74
2023/06/28 02:47:38;;;;;;;0.00;0.00;;;;;;;16.92;93.99;100620.69;5007135;28;20025;-74
2023/06/28 02:50:05;;;;;;;0.00;0.00;;;;;;;16.99;93.07;100617.50;5008876;28;20051;-74
2023/06/28 02:52:34;;;;;;;0.00;0.00;;;;;;;17.06;92.90;100614.34;5030690;28;20033;-74
2023/06/28 02:54:59;;;;;;;0.00;0.00;;;;;;;17.11;92.89;100617.00;5008823;28;20021;-75
2023/06/28 02:57:25;;;;;;;0.00;0.00;;;;;;;17.14;92.92;100613.63;5040155;28;20433;-75
2023/06/28 02:59:51;;;;;;;0.00;0.00;;;;;;;17.19;92.72;100607.22;5036593;28;20024;-75
2023/06/28 03:02:16;;;;;;;0.00;0.00;;;;;;;17.25;92.46;100608.75;5052037;28;21646;-76
2023/06/28 03:04:42;;;;;;;0.00;0.00;;;;;;;17.23;92.57;100600.75;5020424;28;20356;-75
2023/06/28 03:07:14;;;;;;;0.00;0.00;;;;;;;17.25;92.61;100600.44;5055598;28;20132;-75
2023/06/28 03:09:40;;;;;;;0.00;0.00;;;;;;;17.22;92.72;100596.34;5028505;28;20025;-75
2023/06/28 03:12:06;;;;;;;0.00;0.00;;;;;;;17.24;92.24;100599.66;5038847;28;20029;-74
2023/06/28 03:14:31;;;;;;;0.00;0.00;;;;;;;17.26;92.24;100602.91;5031285;28;21049;-73
2023/06/28 03:16:56;;;;;;;0.00;0.00;;;;;;;17.27;92.23;100606.47;5009114;28;20026;-74
2023/06/28 03:19:22;;;;;;;0.00;0.00;;;;;;;17.22;92.43;100595.53;5045548;28;20018;-75
2023/06/28 03:21:47;;;;;;;0.00;0.00;;;;;;;17.08;92.19;100567.88;5019367;28;20060;-74
2023/06/28 03:24:12;;;;;;;0.00;0.00;;;;;;;17.24;92.47;100594.13;5048715;28;20750;-74
2023/06/28 03:26:38;;;;;;;0.00;0.00;;;;;;;17.20;92.52;100595.84;5040319;28;20837;-74
2023/06/28 03:29:03;;;;;;;0.00;0.00;;;;;;;17.18;92.73;100600.84;5013878;28;20017;-74
2023/06/28 03:31:31;;;;;;;0.00;0.00;;;;;;;17.16;92.31;100602.31;5056230;28;20026;-74
2023/06/28 03:33:57;;;;;;;0.00;0.00;;;;;;;17.15;92.47;100595.94;5009708;28;20034;-75
2023/06/28 03:36:24;;;;;;;0.00;0.00;;;;;;;17.14;92.36;100587.94;5013361;28;20028;-73
2023/06/28 03:38:49;;;;;;;0.00;0.00;;;;;;;17.18;92.66;100595.31;5011626;28;20035;-73
2023/06/28 03:41:15;;;;;;;0.00;0.00;;;;;;;17.22;91.68;100601.88;5049594;28;20443;-74
2023/06/28 03:43:40;;;;;;;0.00;0.00;;;;;;;17.27;91.87;100592.66;5008627;28;20092;-74
2023/06/28 03:46:05;;;;;;;0.00;0.00;;;;;;;17.30;91.42;100588.47;5042692;28;20703;-73
2023/06/28 03:48:31;;;;;;;0.00;0.00;;;;;;;17.31;91.61;100593.69;5022002;28;20442;-73
2023/06/28 03:50:57;;;;;;;0.00;0.00;;;;;;;17.30;91.37;100585.72;5044431;28;20037;-73
2023/06/28 03:53:22;;;;;;;0.00;0.00;;;;;;;17.30;91.35;100586.50;5013217;28;20029;-72
2023/06/28 03:55:50;;;;;;;0.00;0.00;;;;;;;17.35;91.43;100593.91;5028359;28;20396;-72
2023/06/28 03:58:15;;;;;;;0.00;0.00;;;;;;;17.40;90.86;100594.59;5014100;28;20124;-72
2023/06/28 04:00:41;;;;;;;0.00;0.00;;;;;;;17.44;90.73;100592.84;5023369;28;20120;-74
2023/06/28 04:03:07;;;;;;;0.00;0.00;;;;;;;17.52;90.34;100596.03;5028474;28;20029;-73
2023/06/28 04:05:32;;;;;;;0.00;0.00;;;;;;;17.55;90.50;100593.47;5002020;28;20084;-73
2023/06/28 04:07:58;;;;;;;0.00;0.00;;;;;;;17.53;90.07;100590.19;5022778;28;20037;-74
2023/06/28 04:10:25;;;;;;;0.00;0.00;;;;;;;17.60;90.14;100576.75;4989527;28;20125;-72
2023/06/28 04:12:53;;;;;;;0.00;0.00;;;;;;;17.57;89.70;100574.63;5021874;28;20096;-72
2023/06/28 04:15:19;;;;;;;0.00;0.00;;;;;;;17.57;89.85;100574.63;5006917;28;20014;-72
2023/06/28 04:17:45;;;;;;;0.00;0.00;;;;;;;17.52;89.70;100571.97;5025768;28;20361;-73
2023/06/28 04:20:10;;;;;;;0.00;0.00;;;;;;;17.53;90.06;100579.13;5028126;28;20584;-72
2023/06/28 04:22:36;;;;;;;0.00;0.00;;;;;;;17.59;90.00;100583.41;5028731;28;20514;-73
2023/06/28 04:25:02;;;;;;;0.00;0.00;;;;;;;17.65;89.14;100580.56;5031128;28;20083;-74
2023/06/28 04:27:28;;;;;;;0.00;0.00;;;;;;;17.67;89.55;100578.28;5017804;28;20352;-75
2023/06/28 04:29:53;;;;;;;0.00;0.00;;;;;;;17.72;88.91;100583.72;5012087;28;20025;-74
2023/06/28 04:32:26;;;;;;;0.00;0.00;;;;;;;17.76;89.05;100581.97;4997197;28;20533;-74
2023/06/28 04:34:53;;;;;;;0.00;0.00;;;;;;;17.80;89.02;100581.03;5004828;28;20025;-74
2023/06/28 04:37:25;;;;;;;0.00;0.00;;;;;;;17.82;88.50;100574.38;5009910;28;20014;-75
2023/06/28 04:39:51;;;;;;;0.00;0.00;;;;;;;17.83;88.72;100570.47;5018031;28;20041;-73
2023/06/28 04:42:16;;;;;;;0.00;0.00;;;;;;;17.92;88.02;100576.94;5009799;28;20053;-73
2023/06/28 04:44:47;;;;;;;0.00;0.00;;;;;;;17.93;88.48;100573.88;5018571;28;20068;-73
2023/06/28 04:47:15;;;;;;;0.00;0.00;;;;;;;18.01;88.32;100588.09;5027793;28;20029;-74
2023/06/28 04:49:46;;;;;;;0.00;0.00;;;;;;;18.07;87.95;100581.28;5004534;28;20033;-74
2023/06/28 04:52:13;;;;;;;0.00;0.00;;;;;;;18.11;87.97;100577.59;5013577;28;20100;-74
2023/06/28 04:54:39;;;;;;;0.00;0.00;;;;;;;18.13;87.47;100577.28;5016254;28;20022;-74
2023/06/28 04:57:05;;;;;;;0.00;0.00;;;;;;;18.19;87.62;100578.78;5009660;28;20017;-74
2023/06/28 04:59:30;;;;;;;0.00;0.00;;;;;;;18.16;87.28;100568.34;5023385;28;20483;-75
2023/06/28 05:01:56;;;;;;;0.00;0.00;;;;;;;18.16;87.32;100579.41;5021872;28;20044;-76
2023/06/28 05:04:21;;;;;;;0.00;0.00;;;;;;;18.20;87.03;100577.66;5029863;28;20037;-76
2023/06/28 05:06:46;;;;;;;0.00;0.00;;;;;;;18.23;87.04;100582.56;5014184;28;20026;-75
2023/06/28 05:09:12;;;;;;;0.00;0.00;;;;;;;18.25;86.92;100582.25;5000771;28;20069;-74
2023/06/28 05:11:37;;;;;;;0.00;0.00;;;;;;;18.23;86.54;100574.25;5025840;28;20196;-75
2023/06/28 05:14:03;;;;;;;0.00;0.00;;;;;;;18.25;86.73;100579.47;5037656;28;20043;-76
2023/06/28 05:16:28;;;;;;;0.00;0.00;;;;;;;18.24;86.47;100575.91;5026096;28;20029;-75
2023/06/28 05:18:54;;;;;;;0.00;0.00;;;;;;;18.28;86.43;100581.59;5020248;28;20041;-76
2023/06/28 05:21:19;;;;;;;0.00;0.00;;;;;;;18.34;86.14;100577.59;5026598;28;20030;-75
2023/06/28 05:23:44;;;;;;;0.00;0.00;;;;;;;18.31;86.43;100579.03;5025889;28;20064;-76
2023/06/28 05:26:10;;;;;;;0.00;0.00;;;;;;;18.37;86.57;100585.28;5008642;28;20037;-76
2023/06/28 05:28:35;;;;;;;0.00;0.00;;;;;;;18.40;85.97;100586.56;5032502;28;20231;-74
2023/06/28 05:31:01;;;;;;;0.00;0.00;;;;;;;18.38;86.10;100594.38;5006275;28;20067;-75
2023/06/28 05:33:26;;;;;;;0.00;0.00;;;;;;;18.40;85.86;100586.56;5032299;28;20496;-75
2023/06/28 05:35:52;;;;;;;0.00;0.00;;;;;;;18.42;86.34;100587.09;5051796;28;20041;-76
2023/06/28 05:38:17;;;;;;;0.00;0.00;;;;;;;18.46;85.92;100579.81;5005530;28;20030;-76
2023/06/28 05:40:43;;;;;;;0.00;0.00;;;;;;;18.53;85.61;100576.56;5017293;28;20036;-75
2023/06/28 05:43:08;;;;;;;0.00;0.00;;;;;;;18.62;85.23;100586.56;5004585;28;20051;-75
2023/06/28 05:45:33;;;;;;;0.00;0.00;;;;;;;18.69;85.14;100575.06;5006838;28;20395;-75
2023/06/28 05:47:59;;;;;;;0.00;0.00;;;;;;;18.74;84.91;100582.41;5007811;28;20042;-74
2023/06/28 05:50:26;;;;;;;0.00;0.00;;;;;;;18.70;84.75;100564.78;4999603;28;20037;-74
2023/06/28 05:52:51;;;;;;;0.00;0.00;;;;;;;18.76;84.66;100566.28;5040308;28;20036;-75
2023/06/28 05:55:17;;;;;;;0.00;0.00;;;;;;;18.83;84.45;100567.44;5006878;28;20033;-76
2023/06/28 05:57:42;;;;;;;0.00;0.00;;;;;;;18.90;84.02;100567.03;5032745;28;20457;-75
2023/06/28 06:00:09;;;;;;;0.00;0.00;;;;;;;18.87;83.88;100559.38;5031472;28;20033;-74
2023/06/28 06:02:37;;;;;;;0.00;0.00;;;;;;;18.94;83.96;100565.28;5019928;28;20116;-76
2023/06/28 06:05:04;;;;;;;0.00;0.00;;;;;;;19.05;83.49;100570.53;5010615;28;20032;-76
2023/06/28 06:07:32;;;;;;;0.00;0.00;;;;;;;19.09;83.19;100560.44;5015947;28;20392;-76
2023/06/28 06:09:57;;;;;;;0.00;0.00;;;;;;;19.13;82.72;100564.22;5009743;28;20090;-75
2023/06/28 06:12:26;;;;;;;0.00;0.00;;;;;;;19.27;82.71;100567.66;5035606;28;20371;-73
2023/06/28 06:14:51;;;;;;;0.00;0.00;;;;;;;19.43;82.19;100567.22;5025698;28;20041;-75
2023/06/28 06:17:18;;;;;;;0.00;0.00;;;;;;;19.56;81.72;100569.03;5006619;28;20486;-75
2023/06/28 06:19:45;;;;;;;0.00;0.00;;;;;;;19.67;80.90;100564.81;5025714;28;20034;-75
2023/06/28 06:22:16;;;;;;;0.00;0.00;;;;;;;19.68;80.57;100571.19;4977695;28;20493;-74
2023/06/28 06:24:42;;;;;;;0.00;0.00;;;;;;;19.67;80.18;100581.47;5008120;28;20037;-75
2023/06/28 06:27:07;;;;;;;0.00;0.00;;;;;;;19.63;80.53;100569.38;5010565;28;20042;-75
2023/06/28 06:29:33;;;;;;;0.00;0.00;;;;;;;19.69;80.40;100576.41;4987044;28;20041;-76
2023/06/28 06:31:58;;;;;;;0.00;0.00;;;;;;;19.82;80.22;100584.97;4987562;28;20056;-74
2023/06/28 06:34:24;;;;;;;0.00;0.00;;;;;;;19.84;79.81;100574.34;4988045;28;20092;-75
2023/06/28 06:36:50;;;;;;;0.00;0.00;;;;;;;19.95;79.77;100577.63;5021430;28;20065;-73
2023/06/28 06:39:15;;;;;;;0.00;0.00;;;;;;;19.93;79.15;100571.56;5036919;28;20040;-74
2023/06/28 06:41:41;;;;;;;0.00;0.00;;;;;;;20.02;78.83;100580.72;5011053;28;20029;-74
2023/06/28 06:44:06;;;;;;;0.00;0.00;;;;;;;20.00;79.04;100583.81;5031122;28;20095;-74
2023/06/28 06:46:32;;;;;;;0.00;0.00;;;;;;;19.94;78.76;100579.56;4989659;28;20673;-75
2023/06/28 06:48:57;;;;;;;0.00;0.00;;;;;;;19.95;79.09;100586.75;5023576;28;20033;-73
2023/06/28 06:51:33;;;;;;;0.00;0.00;;;;;;;19.99;78.89;100582.19;5023770;28;20034;-78
2023/06/28 06:54:02;;;;;;;0.00;0.00;;;;;;;20.02;78.63;100570.44;4995498;28;20044;-81
2023/06/28 06:56:31;;;;;;;0.00;0.00;;;;;;;20.18;77.70;100590.19;5002475;28;20034;-79
2023/06/28 06:59:00;;;;;;;0.00;0.00;;;;;;;19.90;77.44;100561.94;4995886;28;20033;-79
2023/06/28 07:01:26;;;;;;;0.00;0.00;;;;;;;19.82;78.11;100565.53;4991462;28;20488;-78
2023/06/28 07:04:01;;;;;;;0.00;0.00;;;;;;;19.90;78.18;100570.25;5024506;28;20038;-80
2023/06/28 07:06:31;;;;;;;0.00;0.00;;;;;;;19.90;78.20;100561.94;5020877;28;20038;-80
2023/06/28 07:08:57;;;;;;;0.00;0.00;;;;;;;19.95;78.02;100572.88;5000937;28;20120;-79
2023/06/28 07:11:49;;;;;;;0.00;0.00;;;;;;;20.11;77.96;100589.06;5021259;28;20097;-82
2023/06/28 07:14:15;;;;;;;0.00;0.00;;;;;;;20.01;77.60;100563.25;5028188;28;20050;-80
2023/06/28 07:16:45;;;;;;;0.00;0.00;;;;;;;20.18;77.72;100592.13;5028121;28;20064;-79
2023/06/28 07:19:11;;;;;;;0.00;0.00;;;;;;;20.12;77.96;100583.19;5002424;28;20026;-79
2023/06/28 07:21:37;;;;;;;0.00;0.00;;;;;;;20.11;77.79;100589.06;5004070;28;20678;-81
2023/06/28 07:24:03;;;;;;;0.00;0.00;;;;;;;19.95;78.31;100572.88;4994384;28;20037;-80
2023/06/28 07:26:30;;;;;;;0.00;0.00;;;;;;;19.97;78.24;100594.75;5022448;28;20025;-80
2023/06/28 07:28:57;;;;;;;0.00;0.00;;;;;;;19.84;78.21;100582.66;5013957;28;20060;-80
2023/06/28 07:31:22;;;;;;;0.00;0.00;;;;;;;19.88;78.25;100592.78;5031223;28;20478;-80
2023/06/28 07:33:47;;;;;;;0.00;0.00;;;;;;;19.96;78.55;100610.59;5034760;28;20029;-79
2023/06/28 07:36:13;;;;;;;0.00;0.00;;;;;;;19.79;78.44;100593.94;5021284;28;20120;-82
2023/06/28 07:38:48;;;;;;;0.00;0.00;;;;;;;19.89;78.37;100604.72;5035054;28;20025;-79
2023/06/28 07:41:14;;;;;;;0.00;0.00;;;;;;;20.04;78.45;100620.88;5026930;28;20021;-80
2023/06/28 07:43:47;;;;;;;0.00;0.00;;;;;;;19.94;77.89;100571.25;5001917;28;20498;-81
2023/06/28 07:46:21;;;;;;;0.00;0.00;;;;;;;20.15;77.36;100567.81;5003883;28;20048;-79
2023/06/28 07:49:11;;;;;;;0.00;0.00;;;;;;;20.56;76.94;100599.81;5033205;28;20368;-79
2023/06/28 07:51:36;;;;;;;0.00;0.00;;;;;;;20.69;75.90;100593.25;5030816;28;20068;-79
2023/06/28 07:54:02;;;;;;;0.00;0.00;;;;;;;20.82;74.93;100593.38;4998634;28;20064;-80
2023/06/28 07:56:27;;;;;;;0.00;0.00;;;;;;;21.08;73.78;100602.47;5011303;28;20467;-80
2023/06/28 07:58:55;;;;;;;0.00;0.00;;;;;;;21.33;73.10;100605.44;4997858;28;20079;-79
2023/06/28 08:01:29;;;;;;;0.00;0.00;;;;;;;21.55;71.96;100609.13;5043323;28;20103;-80
2023/06/28 08:03:54;;;;;;;0.00;0.00;;;;;;;21.69;70.56;100615.25;5045974;28;20421;-80
2023/06/28 08:06:19;;;;;;;0.00;0.00;;;;;;;21.71;71.21;100604.63;4989899;28;20034;-79
2023/06/28 08:08:47;;;;;;;0.00;0.00;;;;;;;21.83;70.60;100611.41;5024065;28;20036;-79
2023/06/28 08:11:13;;;;;;;0.00;0.00;;;;;;;21.81;70.28;100603.41;5030908;28;20043;-79
2023/06/28 08:13:38;;;;;;;0.00;0.00;;;;;;;21.92;69.82;100609.41;5002606;28;20037;-80
2023/06/28 08:16:04;;;;;;;0.00;0.00;;;;;;;21.98;68.95;100608.03;4996992;28;20029;-79
2023/06/28 08:18:52;;;;;;;0.00;0.00;;;;;;;21.99;69.28;100619.97;5009354;28;20383;-80
2023/06/28 08:21:25;;;;;;;0.00;0.00;;;;;;;21.95;69.81;100586.44;5030398;28;20861;-79
2023/06/28 08:24:00;;;;;;;;;;;;;;;;;;;;;
2023/06/28 08:26:26;;;;;;;0.00;0.00;;;;;;;22.08;67.77;100606.81;5028887;28;20035;-80
2023/06/28 08:28:52;;;;;;;0.00;0.00;;;;;;;22.07;68.26;100607.97;5005657;28;20030;-80
2023/06/28 08:31:20;;;;;;;0.00;0.00;;;;;;;22.09;68.14;100598.13;5007590;28;20033;-79
2023/06/28 08:33:45;;;;;;;0.00;0.00;;;;;;;22.26;67.97;100630.56;5039239;28;20445;-80
2023/06/28 08:36:17;;;;;;;0.00;0.00;;;;;;;22.31;67.45;100616.44;5015687;28;20052;-81
2023/06/28 08:38:42;;;;;;;0.00;0.00;;;;;;;22.43;67.29;100599.00;5023135;28;20033;-81
2023/06/28 08:41:10;;;;;;;0.00;0.00;;;;;;;22.54;66.29;100585.44;5028738;28;20029;-82
2023/06/28 08:43:56;;;;;;;0.00;0.00;;;;;;;22.76;65.73;100606.53;5006541;28;20024;-81
2023/06/28 08:49:58;;;;;;;0.00;0.00;;;;;;;22.67;65.21;100612.19;4965507;28;20501;-80
2023/06/28 08:52:35;;;;;;;0.00;0.00;;;;;;;22.57;65.69;100617.38;5017092;28;20375;-81
2023/06/28 08:55:33;;;;;;;;;;;;;;;;;;;;;
2023/06/28 08:58:00;;;;;;;0.00;0.00;;;;;;;21.72;67.77;100578.41;5048156;28;20017;-82
2023/06/28 09:00:36;;;;;;;0.00;0.00;;;;;;;21.72;68.68;100606.25;5024290;28;20025;-82
2023/06/28 09:03:24;;;;;;;0.00;0.00;;;;;;;21.63;68.35;100580.44;5040564;28;20040;-82
2023/06/28 09:05:58;;;;;;;0.00;0.00;;;;;;;21.88;68.40;100614.81;5013285;28;20064;-81
2023/06/28 09:08:38;;;;;;;0.00;0.00;;;;;;;21.91;68.83;100596.63;5024924;28;20025;-80
2023/06/28 09:11:47;;;;;;;0.00;0.00;;;;;;;22.04;67.57;100623.38;5013779;28;20044;-81
2023/06/28 09:14:17;;;;;;;0.00;0.00;;;;;;;21.76;67.73;100590.50;5039868;28;20040;-80
2023/06/28 09:17:12;;;;;;;;;;;;;;;;;;;;;
2023/06/28 09:19:54;;;;;;;0.00;0.00;;;;;;;21.68;68.20;100613.63;5014360;28;20033;-80
2023/06/28 09:22:22;;;;;;;0.00;0.00;;;;;;;21.42;69.68;100614.56;5003911;28;20162;-78
2023/06/28 09:24:53;;;;;;;0.00;0.00;;;;;;;21.34;70.25;100634.09;5014848;28;20034;-81
2023/06/28 09:27:32;;;;;;;0.00;0.00;;;;;;;21.03;70.95;100590.72;5008879;28;20070;-81
2023/06/28 09:30:01;;;;;;;0.00;0.00;;;;;;;20.89;71.63;100613.13;5004688;28;20046;-82
2023/06/28 09:32:43;;;;;;;0.00;0.00;;;;;;;20.75;72.56;100608.59;5036256;28;20039;-79
2023/06/28 09:35:27;;;;;;;;;;;;;;;;;;;;;
2023/06/28 09:38:04;;;;;;;;;;;;;;;;;;;;;
2023/06/28 09:40:36;;;;;;;0.00;0.00;;;;;;;20.65;72.60;100595.03;5030207;28;20027;-79
2023/06/28 09:43:04;;;;;;;0.00;0.00;;;;;;;20.83;72.79;100597.81;4976666;28;20025;-80
2023/06/28 09:46:21;;;;;;;0.00;0.00;;;;;;;20.89;72.18;100585.34;5021985;28;20061;-81
2023/06/28 09:49:18;;;;;;;0.00;0.00;;;;;;;21.33;71.57;100624.09;5008683;28;20663;-82
2023/06/28 09:52:12;;;;;;;;;;;;;;;;;;;;;
2023/06/28 09:54:58;;;;;;;0.00;0.00;;;;;;;21.16;71.53;100595.22;5016586;28;20030;-81
2023/06/28 09:57:43;;;;;;;0.00;0.00;;;;;;;21.00;70.60;100583.03;4994768;28;20108;-81
2023/06/28 10:00:23;;;;;;;0.00;0.00;;;;;;;21.21;71.21;100608.13;5034930;28;20029;-80
2023/06/28 10:06:22;;;;;;;0.00;0.00;;;;;;;21.21;70.18;100599.78;5005981;28;20128;-81
2023/06/28 10:09:28;;;;;;;0.00;0.00;;;;;;;21.28;70.74;100600.09;5003049;28;20060;-80
2023/06/28 10:12:06;;;;;;;0.00;0.00;;;;;;;21.51;69.86;100603.44;4993051;28;20033;-80
2023/06/28 10:14:49;;;;;;;0.00;0.00;;;;;;;21.90;69.71;100595.00;5026380;28;20339;-80
2023/06/28 10:17:35;;;;;;;;;;;;;;;;;;;;;
2023/06/28 10:20:41;;;;;;;;;;;;;;;;;;;;;
2023/06/28 10:23:39;;;;;;;;;;;;;;;;;;;;;
2023/06/28 10:26:13;;;;;;;0.00;0.00;;;;;;;22.68;64.58;100596.28;5031486;28;20025;-80
2023/06/28 10:28:54;;;;;;;0.00;0.00;;;;;;;22.61;64.99;100590.47;5047216;28;20056;-80
2023/06/28 10:31:20;;;;;;;0.00;0.00;;;;;;;22.94;65.04;100611.91;5029284;28;20037;-80
2023/06/28 10:33:57;;;;;;;0.00;0.00;;;;;;;23.30;63.87;100604.78;5011088;28;20029;-79
2023/06/28 10:36:23;;;;;;;0.00;0.00;;;;;;;23.78;61.69;100605.91;5053213;28;20481;-81
2023/06/28 10:39:08;;;;;;;0.00;0.00;;;;;;;24.27;60.76;100585.44;5030192;28;20391;-81
2023/06/28 10:42:04;;;;;;;;;;;;;;;;;;;;;
2023/06/28 10:44:43;;;;;;;;;;;;;;;;;;;;;
2023/06/28 10:47:37;;;;;;;;;;;;;;;;;;;;;
2023/06/28 10:50:22;;;;;;;;;;;;;;;;;;;;;
2023/06/28 10:53:06;;;;;;;0.00;0.00;;;;;;;36.96;36.58;100578.03;5029795;28;20035;-82
2023/06/28 10:56:03;;;;;;;;;;;;;;;;;;;;;
2023/06/28 10:58:55;;;;;;;0.00;0.00;;;;;;;42.48;29.07;100555.09;5038729;28;20032;-81
2023/06/28 11:01:51;;;;;;;0.00;0.00;;;;;;;42.33;24.30;100569.38;5020978;28;20067;-82
2023/06/28 11:04:25;;;;;;;0.00;0.00;;;;;;;39.36;26.48;100534.16;5042353;28;20052;-82
2023/06/28 11:07:45;;;;;;;;;;;;;;;;;;;;;
2023/06/28 11:10:38;;;;;;;0.00;0.00;;;;;;;36.87;31.18;100518.00;5042746;28;20771;-82
2023/06/28 11:13:52;;;;;;;0.00;0.00;;;;;;;39.51;29.04;100545.88;5023543;28;20028;-83
2023/06/28 11:16:26;;;;;;;0.00;0.00;;;;;;;40.30;26.59;100531.47;5032860;28;20110;-82
2023/06/28 11:19:22;;;;;;;;;;;;;;;;;;;;;
2023/06/28 11:22:06;;;;;;;0.00;0.00;;;;;;;35.13;31.12;100505.84;5043294;28;20025;-80
2023/06/28 11:24:44;;;;;;;0.00;0.00;;;;;;;36.46;30.87;100539.34;5028799;28;20039;-82
2023/06/28 11:27:23;;;;;;;;;;;;;;;;;;;;;
2023/06/28 11:30:51;;;;;;;;;;;;;;;;;;;;;
2023/06/28 11:34:12;;;;;;;;;;;;;;;;;;;;;
2023/06/28 11:36:39;;;;;;;0.00;0.00;;;;;;;39.78;25.88;100513.81;5044480;28;20033;-80
2023/06/28 11:48:29;;;;;;;0.00;0.00;;;;;;;33.27;31.82;100510.06;5891572;22;20114;-81
2023/06/28 11:51:00;;;;;;;0.00;0.00;;;;;;;32.54;32.98;100496.47;5010206;28;20065;-81
2023/06/28 11:53:29;;;;;;;0.00;0.00;;;;;;;32.21;34.44;100502.78;5007185;28;21247;-80
2023/06/28 11:55:56;;;;;;;0.00;0.00;;;;;;;33.03;34.26;100505.00;5011448;28;20375;-81
2023/06/28 11:58:53;;;;;;;0.00;0.00;;;;;;;33.45;33.30;100509.88;5006395;28;20032;-81
2023/06/28 12:01:21;;;;;;;0.00;0.00;;;;;;;33.54;33.01;100482.63;5039239;28;20037;-81
2023/06/28 12:04:09;;;;;;;0.00;0.00;;;;;;;33.69;32.86;100483.25;5003392;28;20040;-82
2023/06/28 12:06:45;;;;;;;0.00;0.00;;;;;;;35.38;30.47;100508.28;4990058;28;20042;-81
2023/06/28 12:12:34;;;;;;;0.00;0.00;;;;;;;32.79;32.26;100464.34;4964767;28;20070;-80
2023/06/28 12:14:59;;;;;;;0.00;0.00;;;;;;;31.43;34.59;100486.50;5001616;28;20033;-80
2023/06/28 12:17:25;;;;;;;0.00;0.00;;;;;;;30.80;35.70;100495.44;5022414;28;20048;-80
2023/06/28 12:19:58;;;;;;;0.00;0.00;;;;;;;30.49;36.45;100465.19;5011780;28;20422;-82
2023/06/28 12:22:40;;;;;;;0.00;0.00;;;;;;;30.35;36.61;100457.53;5006641;28;20711;-80
2023/06/28 12:25:06;;;;;;;0.00;0.00;;;;;;;30.25;37.06;100481.66;5004321;28;20034;-79
2023/06/28 12:27:31;;;;;;;0.00;0.00;;;;;;;30.53;36.96;100458.34;5006952;28;20034;-80